sensor_id;sensor_type;location;lat;lon;timestamp;P1;durP1;ratioP1;P2;durP2;ratioP2
13343;SDS011;6741;48.964;9.406;2023-10-31T00:02:08;0.93;;;0.87;;
13343;SDS011;6741;48.964;9.406;2023-10-31T00:04:36;0.90;;;0.90;;
13343;SDS011;6741;48.964;9.406;2023-10-31T00:07:03;0.60;;;0.47;;
13343;SDS011;6741;48.964;9.406;2023-10-31T00:09:30;0.87;;;0.87;;
13343;SDS011;6741;48.964;9.406;2023-10-31T00:11:57;0.73;;;0.73;;
13343;SDS011;6741;48.964;9.406;2023-10-31T00:14:24;0.87;;;0.77;;
13343;SDS011;6741;48.964;9.406;2023-10-31T00:16:51;0.70;;;0.70;;
13343;SDS011;6741;48.964;9.406;2023-10-31T00:19:18;0.80;;;0.50;;
13343;SDS011;6741;48.964;9.406;2023-10-31T00:21:46;0.70;;;0.60;;
13343;SDS011;6741;48.964;9.406;2023-10-31T00:24:13;0.40;;;0.40;;
13343;SDS011;6741;48.964;9.406;2023-10-31T00:26:40;0.90;;;0.90;;
13343;SDS011;6741;48.964;9.406;2023-10-31T00:29:07;0.70;;;0.70;;
13343;SDS011;6741;48.964;9.406;2023-10-31T00:31:34;0.70;;;0.50;;
13343;SDS011;6741;48.964;9.406;2023-10-31T00:34:01;0.53;;;0.53;;
13343;SDS011;6741;48.964;9.406;2023-10-31T00:36:27;1.90;;;0.70;;
13343;SDS011;6741;48.964;9.406;2023-10-31T00:38:56;1.23;;;0.60;;
13343;SDS011;6741;48.964;9.406;2023-10-31T00:41:23;0.77;;;0.60;;
13343;SDS011;6741;48.964;9.406;2023-10-31T00:43:49;0.20;;;0.20;;
13343;SDS011;6741;48.964;9.406;2023-10-31T00:46:16;0.60;;;0.60;;
13343;SDS011;6741;48.964;9.406;2023-10-31T00:48:43;0.97;;;0.60;;
13343;SDS011;6741;48.964;9.406;2023-10-31T00:51:10;1.23;;;0.40;;
13343;SDS011;6741;48.964;9.406;2023-10-31T00:53:37;0.40;;;0.30;;
13343;SDS011;6741;48.964;9.406;2023-10-31T00:56:06;0.80;;;0.20;;
13343;SDS011;6741;48.964;9.406;2023-10-31T00:58:33;0.53;;;0.53;;
13343;SDS011;6741;48.964;9.406;2023-10-31T01:01:00;0.40;;;0.40;;
13343;SDS011;6741;48.964;9.406;2023-10-31T01:03:27;0.50;;;0.50;;
13343;SDS011;6741;48.964;9.406;2023-10-31T01:05:55;0.33;;;0.33;;
13343;SDS011;6741;48.964;9.406;2023-10-31T01:08:21;0.43;;;0.43;;
13343;SDS011;6741;48.964;9.406;2023-10-31T01:10:48;0.40;;;0.40;;
13343;SDS011;6741;48.964;9.406;2023-10-31T01:13:17;0.97;;;0.47;;
13343;SDS011;6741;48.964;9.406;2023-10-31T01:15:43;0.50;;;0.50;;
13343;SDS011;6741;48.964;9.406;2023-10-31T01:18:10;0.57;;;0.57;;
13343;SDS011;6741;48.964;9.406;2023-10-31T01:20:37;1.17;;;0.43;;
13343;SDS011;6741;48.964;9.406;2023-10-31T01:23:04;0.93;;;0.50;;
13343;SDS011;6741;48.964;9.406;2023-10-31T01:25:31;0.60;;;0.60;;
13343;SDS011;6741;48.964;9.406;2023-10-31T01:27:58;0.40;;;0.40;;
13343;SDS011;6741;48.964;9.406;2023-10-31T01:30:26;0.83;;;0.53;;
13343;SDS011;6741;48.964;9.406;2023-10-31T01:32:53;0.90;;;0.60;;
13343;SDS011;6741;48.964;9.406;2023-10-31T01:35:20;0.60;;;0.50;;
13343;SDS011;6741;48.964;9.406;2023-10-31T01:37:47;1.93;;;0.50;;
13343;SDS011;6741;48.964;9.406;2023-10-31T01:40:14;0.60;;;0.60;;
13343;SDS011;6741;48.964;9.406;2023-10-31T01:42:40;1.13;;;0.70;;
13343;SDS011;6741;48.964;9.406;2023-10-31T01:45:08;0.63;;;0.63;;
13343;SDS011;6741;48.964;9.406;2023-10-31T01:47:36;0.63;;;0.63;;
13343;SDS011;6741;48.964;9.406;2023-10-31T01:50:03;0.50;;;0.50;;
13343;SDS011;6741;48.964;9.406;2023-10-31T01:52:34;1.43;;;0.73;;
13343;SDS011;6741;48.964;9.406;2023-10-31T01:55:02;0.63;;;0.63;;
13343;SDS011;6741;48.964;9.406;2023-10-31T01:57:31;2.47;;;0.60;;
13343;SDS011;6741;48.964;9.406;2023-10-31T01:59:59;1.03;;;0.97;;
13343;SDS011;6741;48.964;9.406;2023-10-31T02:02:26;0.40;;;0.40;;
13343;SDS011;6741;48.964;9.406;2023-10-31T02:04:57;2.40;;;0.70;;
13343;SDS011;6741;48.964;9.406;2023-10-31T02:07:25;1.60;;;0.53;;
13343;SDS011;6741;48.964;9.406;2023-10-31T02:09:52;0.97;;;0.53;;
13343;SDS011;6741;48.964;9.406;2023-10-31T02:12:31;1.20;;;0.83;;
13343;SDS011;6741;48.964;9.406;2023-10-31T02:14:59;0.80;;;0.60;;
13343;SDS011;6741;48.964;9.406;2023-10-31T02:17:25;1.20;;;0.90;;
13343;SDS011;6741;48.964;9.406;2023-10-31T02:19:52;1.33;;;0.60;;
13343;SDS011;6741;48.964;9.406;2023-10-31T02:22:21;1.17;;;0.77;;
13343;SDS011;6741;48.964;9.406;2023-10-31T02:24:48;0.40;;;0.40;;
13343;SDS011;6741;48.964;9.406;2023-10-31T02:27:15;1.07;;;0.77;;
13343;SDS011;6741;48.964;9.406;2023-10-31T02:29:41;0.60;;;0.60;;
13343;SDS011;6741;48.964;9.406;2023-10-31T02:32:09;1.33;;;0.67;;
13343;SDS011;6741;48.964;9.406;2023-10-31T02:34:36;0.70;;;0.33;;
13343;SDS011;6741;48.964;9.406;2023-10-31T02:37:02;0.63;;;0.53;;
13343;SDS011;6741;48.964;9.406;2023-10-31T02:39:31;0.50;;;0.37;;
13343;SDS011;6741;48.964;9.406;2023-10-31T02:41:58;1.97;;;0.57;;
13343;SDS011;6741;48.964;9.406;2023-10-31T02:44:26;0.80;;;0.40;;
13343;SDS011;6741;48.964;9.406;2023-10-31T02:46:53;0.53;;;0.50;;
13343;SDS011;6741;48.964;9.406;2023-10-31T02:49:20;0.60;;;0.50;;
13343;SDS011;6741;48.964;9.406;2023-10-31T02:51:47;0.70;;;0.70;;
13343;SDS011;6741;48.964;9.406;2023-10-31T02:54:14;1.03;;;0.83;;
13343;SDS011;6741;48.964;9.406;2023-10-31T02:56:42;1.07;;;0.60;;
13343;SDS011;6741;48.964;9.406;2023-10-31T02:59:09;1.37;;;0.70;;
13343;SDS011;6741;48.964;9.406;2023-10-31T03:01:36;1.73;;;0.60;;
13343;SDS011;6741;48.964;9.406;2023-10-31T03:04:03;0.50;;;0.50;;
13343;SDS011;6741;48.964;9.406;2023-10-31T03:06:30;0.40;;;0.40;;
13343;SDS011;6741;48.964;9.406;2023-10-31T03:08:56;1.37;;;0.80;;
13343;SDS011;6741;48.964;9.406;2023-10-31T03:11:23;0.53;;;0.53;;
13343;SDS011;6741;48.964;9.406;2023-10-31T03:13:52;0.50;;;0.50;;
13343;SDS011;6741;48.964;9.406;2023-10-31T03:16:21;0.73;;;0.70;;
13343;SDS011;6741;48.964;9.406;2023-10-31T03:18:48;1.33;;;0.87;;
13343;SDS011;6741;48.964;9.406;2023-10-31T03:21:15;1.00;;;0.63;;
13343;SDS011;6741;48.964;9.406;2023-10-31T03:23:46;1.13;;;0.57;;
13343;SDS011;6741;48.964;9.406;2023-10-31T03:26:13;1.90;;;0.80;;
13343;SDS011;6741;48.964;9.406;2023-10-31T03:28:40;0.83;;;0.60;;
13343;SDS011;6741;48.964;9.406;2023-10-31T03:31:08;0.77;;;0.77;;
13343;SDS011;6741;48.964;9.406;2023-10-31T03:33:35;1.03;;;0.70;;
13343;SDS011;6741;48.964;9.406;2023-10-31T03:36:02;1.10;;;1.00;;
13343;SDS011;6741;48.964;9.406;2023-10-31T03:38:30;1.47;;;0.70;;
13343;SDS011;6741;48.964;9.406;2023-10-31T03:40:59;2.80;;;0.60;;
13343;SDS011;6741;48.964;9.406;2023-10-31T03:43:26;0.73;;;0.60;;
13343;SDS011;6741;48.964;9.406;2023-10-31T03:45:54;2.00;;;0.67;;
13343;SDS011;6741;48.964;9.406;2023-10-31T03:48:22;1.63;;;0.70;;
13343;SDS011;6741;48.964;9.406;2023-10-31T03:50:49;0.87;;;0.70;;
13343;SDS011;6741;48.964;9.406;2023-10-31T03:53:16;1.93;;;0.77;;
13343;SDS011;6741;48.964;9.406;2023-10-31T03:55:43;0.60;;;0.43;;
13343;SDS011;6741;48.964;9.406;2023-10-31T03:58:10;0.70;;;0.70;;
13343;SDS011;6741;48.964;9.406;2023-10-31T04:00:38;1.47;;;0.63;;
13343;SDS011;6741;48.964;9.406;2023-10-31T04:03:05;1.80;;;0.70;;
13343;SDS011;6741;48.964;9.406;2023-10-31T04:05:33;1.27;;;0.47;;
13343;SDS011;6741;48.964;9.406;2023-10-31T04:08:01;1.30;;;0.67;;
13343;SDS011;6741;48.964;9.406;2023-10-31T04:10:28;1.70;;;0.63;;
13343;SDS011;6741;48.964;9.406;2023-10-31T04:12:55;2.37;;;0.70;;
13343;SDS011;6741;48.964;9.406;2023-10-31T04:15:22;2.30;;;0.83;;
13343;SDS011;6741;48.964;9.406;2023-10-31T04:17:48;1.10;;;0.50;;
13343;SDS011;6741;48.964;9.406;2023-10-31T04:20:15;0.70;;;0.30;;
13343;SDS011;6741;48.964;9.406;2023-10-31T04:22:43;0.97;;;0.40;;
13343;SDS011;6741;48.964;9.406;2023-10-31T04:25:10;2.03;;;0.60;;
13343;SDS011;6741;48.964;9.406;2023-10-31T04:27:37;0.63;;;0.60;;
13343;SDS011;6741;48.964;9.406;2023-10-31T04:30:04;0.40;;;0.40;;
13343;SDS011;6741;48.964;9.406;2023-10-31T04:32:32;0.50;;;0.37;;
13343;SDS011;6741;48.964;9.406;2023-10-31T04:34:59;1.80;;;0.40;;
13343;SDS011;6741;48.964;9.406;2023-10-31T04:37:26;1.17;;;0.50;;
13343;SDS011;6741;48.964;9.406;2023-10-31T04:39:54;2.33;;;0.67;;
13343;SDS011;6741;48.964;9.406;2023-10-31T04:42:21;1.50;;;0.63;;
13343;SDS011;6741;48.964;9.406;2023-10-31T04:44:47;1.07;;;0.40;;
13343;SDS011;6741;48.964;9.406;2023-10-31T04:47:14;0.43;;;0.43;;
13343;SDS011;6741;48.964;9.406;2023-10-31T04:49:41;1.10;;;0.60;;
13343;SDS011;6741;48.964;9.406;2023-10-31T04:52:08;0.97;;;0.53;;
13343;SDS011;6741;48.964;9.406;2023-10-31T04:54:35;0.30;;;0.30;;
13343;SDS011;6741;48.964;9.406;2023-10-31T04:57:03;0.80;;;0.50;;
13343;SDS011;6741;48.964;9.406;2023-10-31T04:59:30;0.80;;;0.53;;
13343;SDS011;6741;48.964;9.406;2023-10-31T05:01:57;1.40;;;0.50;;
13343;SDS011;6741;48.964;9.406;2023-10-31T05:04:25;0.60;;;0.50;;
13343;SDS011;6741;48.964;9.406;2023-10-31T05:06:52;0.60;;;0.47;;
13343;SDS011;6741;48.964;9.406;2023-10-31T05:09:18;0.20;;;0.20;;
13343;SDS011;6741;48.964;9.406;2023-10-31T05:11:46;0.40;;;0.40;;
13343;SDS011;6741;48.964;9.406;2023-10-31T05:14:14;0.50;;;0.50;;
13343;SDS011;6741;48.964;9.406;2023-10-31T05:16:41;0.70;;;0.60;;
13343;SDS011;6741;48.964;9.406;2023-10-31T05:19:08;1.27;;;0.43;;
13343;SDS011;6741;48.964;9.406;2023-10-31T05:21:35;0.90;;;0.47;;
13343;SDS011;6741;48.964;9.406;2023-10-31T05:24:02;0.73;;;0.73;;
13343;SDS011;6741;48.964;9.406;2023-10-31T05:26:30;0.57;;;0.57;;
13343;SDS011;6741;48.964;9.406;2023-10-31T05:28:57;1.03;;;0.60;;
13343;SDS011;6741;48.964;9.406;2023-10-31T05:31:25;0.83;;;0.80;;
13343;SDS011;6741;48.964;9.406;2023-10-31T05:33:52;1.23;;;0.50;;
13343;SDS011;6741;48.964;9.406;2023-10-31T05:36:20;1.83;;;0.60;;
13343;SDS011;6741;48.964;9.406;2023-10-31T05:38:48;1.43;;;0.50;;
13343;SDS011;6741;48.964;9.406;2023-10-31T05:41:15;1.03;;;0.80;;
13343;SDS011;6741;48.964;9.406;2023-10-31T05:43:42;0.87;;;0.70;;
13343;SDS011;6741;48.964;9.406;2023-10-31T05:46:09;0.80;;;0.80;;
13343;SDS011;6741;48.964;9.406;2023-10-31T05:48:39;0.70;;;0.70;;
13343;SDS011;6741;48.964;9.406;2023-10-31T05:51:10;0.60;;;0.60;;
13343;SDS011;6741;48.964;9.406;2023-10-31T05:56:06;0.67;;;0.60;;
13343;SDS011;6741;48.964;9.406;2023-10-31T05:58:33;1.20;;;1.00;;
13343;SDS011;6741;48.964;9.406;2023-10-31T06:01:00;1.03;;;0.70;;
13343;SDS011;6741;48.964;9.406;2023-10-31T06:03:27;2.77;;;0.63;;
13343;SDS011;6741;48.964;9.406;2023-10-31T06:05:55;1.53;;;0.70;;
13343;SDS011;6741;48.964;9.406;2023-10-31T06:08:22;0.63;;;0.63;;
13343;SDS011;6741;48.964;9.406;2023-10-31T06:10:52;0.80;;;0.80;;
13343;SDS011;6741;48.964;9.406;2023-10-31T06:13:20;0.90;;;0.70;;
13343;SDS011;6741;48.964;9.406;2023-10-31T06:15:47;1.40;;;0.90;;
13343;SDS011;6741;48.964;9.406;2023-10-31T06:18:14;1.30;;;0.80;;
13343;SDS011;6741;48.964;9.406;2023-10-31T06:20:41;1.27;;;0.90;;
13343;SDS011;6741;48.964;9.406;2023-10-31T06:23:09;1.27;;;0.90;;
13343;SDS011;6741;48.964;9.406;2023-10-31T06:25:36;3.33;;;0.90;;
13343;SDS011;6741;48.964;9.406;2023-10-31T06:28:03;0.57;;;0.57;;
13343;SDS011;6741;48.964;9.406;2023-10-31T06:30:30;2.10;;;0.60;;
13343;SDS011;6741;48.964;9.406;2023-10-31T06:32:57;0.97;;;0.97;;
13343;SDS011;6741;48.964;9.406;2023-10-31T06:35:24;1.07;;;0.80;;
13343;SDS011;6741;48.964;9.406;2023-10-31T06:37:51;1.70;;;0.83;;
13343;SDS011;6741;48.964;9.406;2023-10-31T06:40:22;2.20;;;1.23;;
13343;SDS011;6741;48.964;9.406;2023-10-31T06:42:49;0.97;;;0.63;;
13343;SDS011;6741;48.964;9.406;2023-10-31T06:45:16;1.33;;;0.63;;
13343;SDS011;6741;48.964;9.406;2023-10-31T06:47:43;0.97;;;0.77;;
13343;SDS011;6741;48.964;9.406;2023-10-31T06:50:10;1.00;;;0.90;;
13343;SDS011;6741;48.964;9.406;2023-10-31T06:52:37;1.33;;;0.90;;
13343;SDS011;6741;48.964;9.406;2023-10-31T06:55:04;1.80;;;0.63;;
13343;SDS011;6741;48.964;9.406;2023-10-31T06:57:33;2.17;;;0.90;;
13343;SDS011;6741;48.964;9.406;2023-10-31T07:00:00;1.80;;;1.63;;
13343;SDS011;6741;48.964;9.406;2023-10-31T07:02:28;1.80;;;0.80;;
13343;SDS011;6741;48.964;9.406;2023-10-31T07:04:55;2.27;;;1.20;;
13343;SDS011;6741;48.964;9.406;2023-10-31T07:07:22;2.37;;;1.20;;
13343;SDS011;6741;48.964;9.406;2023-10-31T07:09:49;1.47;;;1.10;;
13343;SDS011;6741;48.964;9.406;2023-10-31T07:12:16;1.27;;;0.80;;
13343;SDS011;6741;48.964;9.406;2023-10-31T07:14:44;0.60;;;0.60;;
13343;SDS011;6741;48.964;9.406;2023-10-31T07:17:11;0.70;;;0.70;;
13343;SDS011;6741;48.964;9.406;2023-10-31T07:19:38;0.63;;;0.63;;
13343;SDS011;6741;48.964;9.406;2023-10-31T07:22:05;0.77;;;0.77;;
13343;SDS011;6741;48.964;9.406;2023-10-31T07:24:32;1.23;;;0.60;;
13343;SDS011;6741;48.964;9.406;2023-10-31T07:27:01;0.97;;;0.83;;
13343;SDS011;6741;48.964;9.406;2023-10-31T07:29:28;3.73;;;0.80;;
13343;SDS011;6741;48.964;9.406;2023-10-31T07:31:57;1.17;;;0.80;;
13343;SDS011;6741;48.964;9.406;2023-10-31T07:34:25;1.73;;;1.20;;
13343;SDS011;6741;48.964;9.406;2023-10-31T07:36:52;6.00;;;2.20;;
13343;SDS011;6741;48.964;9.406;2023-10-31T07:39:19;2.37;;;1.93;;
13343;SDS011;6741;48.964;9.406;2023-10-31T07:41:48;3.70;;;2.10;;
13343;SDS011;6741;48.964;9.406;2023-10-31T07:44:15;2.63;;;1.77;;
13343;SDS011;6741;48.964;9.406;2023-10-31T07:46:42;1.47;;;0.90;;
13343;SDS011;6741;48.964;9.406;2023-10-31T07:49:10;1.87;;;1.20;;
13343;SDS011;6741;48.964;9.406;2023-10-31T07:51:37;1.70;;;1.13;;
13343;SDS011;6741;48.964;9.406;2023-10-31T07:54:04;2.13;;;0.90;;
13343;SDS011;6741;48.964;9.406;2023-10-31T07:56:34;1.20;;;1.10;;
13343;SDS011;6741;48.964;9.406;2023-10-31T07:59:03;2.00;;;1.03;;
13343;SDS011;6741;48.964;9.406;2023-10-31T08:01:33;1.83;;;0.90;;
13343;SDS011;6741;48.964;9.406;2023-10-31T08:04:01;0.80;;;0.80;;
13343;SDS011;6741;48.964;9.406;2023-10-31T08:06:31;1.80;;;0.60;;
13343;SDS011;6741;48.964;9.406;2023-10-31T08:08:59;0.70;;;0.47;;
13343;SDS011;6741;48.964;9.406;2023-10-31T08:11:27;2.07;;;0.73;;
13343;SDS011;6741;48.964;9.406;2023-10-31T08:13:54;0.60;;;0.60;;
13343;SDS011;6741;48.964;9.406;2023-10-31T08:16:22;0.77;;;0.70;;
13343;SDS011;6741;48.964;9.406;2023-10-31T08:18:49;1.00;;;0.63;;
13343;SDS011;6741;48.964;9.406;2023-10-31T08:21:16;0.57;;;0.57;;
13343;SDS011;6741;48.964;9.406;2023-10-31T08:23:45;0.60;;;0.60;;
13343;SDS011;6741;48.964;9.406;2023-10-31T08:26:13;0.97;;;0.87;;
13343;SDS011;6741;48.964;9.406;2023-10-31T08:28:40;0.73;;;0.70;;
13343;SDS011;6741;48.964;9.406;2023-10-31T08:31:07;1.63;;;0.80;;
13343;SDS011;6741;48.964;9.406;2023-10-31T08:33:34;0.53;;;0.53;;
13343;SDS011;6741;48.964;9.406;2023-10-31T08:36:03;0.60;;;0.60;;
13343;SDS011;6741;48.964;9.406;2023-10-31T08:38:33;1.70;;;0.50;;
13343;SDS011;6741;48.964;9.406;2023-10-31T08:41:03;0.60;;;0.60;;
13343;SDS011;6741;48.964;9.406;2023-10-31T08:43:30;4.70;;;1.40;;
13343;SDS011;6741;48.964;9.406;2023-10-31T08:45:57;6.60;;;1.80;;
13343;SDS011;6741;48.964;9.406;2023-10-31T08:48:24;2.73;;;1.03;;
13343;SDS011;6741;48.964;9.406;2023-10-31T08:50:52;2.70;;;0.80;;
13343;SDS011;6741;48.964;9.406;2023-10-31T08:53:19;2.97;;;0.87;;
13343;SDS011;6741;48.964;9.406;2023-10-31T08:55:45;1.00;;;0.70;;
13343;SDS011;6741;48.964;9.406;2023-10-31T08:58:17;0.90;;;0.60;;
13343;SDS011;6741;48.964;9.406;2023-10-31T09:00:44;0.50;;;0.50;;
13343;SDS011;6741;48.964;9.406;2023-10-31T09:03:11;1.00;;;0.60;;
13343;SDS011;6741;48.964;9.406;2023-10-31T09:05:38;2.03;;;0.90;;
13343;SDS011;6741;48.964;9.406;2023-10-31T09:08:05;1.27;;;0.43;;
13343;SDS011;6741;48.964;9.406;2023-10-31T09:10:33;1.50;;;0.63;;
13343;SDS011;6741;48.964;9.406;2023-10-31T09:13:02;1.00;;;0.47;;
13343;SDS011;6741;48.964;9.406;2023-10-31T09:15:31;1.43;;;0.67;;
13343;SDS011;6741;48.964;9.406;2023-10-31T09:17:58;1.43;;;0.70;;
13343;SDS011;6741;48.964;9.406;2023-10-31T09:20:25;4.63;;;0.83;;
13343;SDS011;6741;48.964;9.406;2023-10-31T09:22:51;0.63;;;0.57;;
13343;SDS011;6741;48.964;9.406;2023-10-31T09:25:19;0.70;;;0.50;;
13343;SDS011;6741;48.964;9.406;2023-10-31T09:27:46;2.27;;;0.97;;
13343;SDS011;6741;48.964;9.406;2023-10-31T09:30:12;2.23;;;0.83;;
13343;SDS011;6741;48.964;9.406;2023-10-31T09:32:41;2.07;;;0.70;;
13343;SDS011;6741;48.964;9.406;2023-10-31T09:35:09;1.70;;;0.70;;
13343;SDS011;6741;48.964;9.406;2023-10-31T09:37:38;1.77;;;1.00;;
13343;SDS011;6741;48.964;9.406;2023-10-31T09:40:06;1.50;;;0.93;;
13343;SDS011;6741;48.964;9.406;2023-10-31T09:42:33;2.77;;;1.17;;
13343;SDS011;6741;48.964;9.406;2023-10-31T09:45:00;3.47;;;1.10;;
13343;SDS011;6741;48.964;9.406;2023-10-31T09:47:28;1.17;;;1.07;;
13343;SDS011;6741;48.964;9.406;2023-10-31T09:49:57;5.10;;;1.20;;
13343;SDS011;6741;48.964;9.406;2023-10-31T09:52:25;1.47;;;1.20;;
13343;SDS011;6741;48.964;9.406;2023-10-31T09:54:52;2.10;;;1.10;;
13343;SDS011;6741;48.964;9.406;2023-10-31T09:57:20;2.80;;;1.10;;
13343;SDS011;6741;48.964;9.406;2023-10-31T09:59:47;3.63;;;0.90;;
13343;SDS011;6741;48.964;9.406;2023-10-31T10:02:14;2.30;;;1.10;;
13343;SDS011;6741;48.964;9.406;2023-10-31T10:04:41;2.23;;;0.80;;
13343;SDS011;6741;48.964;9.406;2023-10-31T10:07:09;2.40;;;0.93;;
13343;SDS011;6741;48.964;9.406;2023-10-31T10:09:41;4.30;;;1.80;;
13343;SDS011;6741;48.964;9.406;2023-10-31T10:12:10;2.97;;;1.30;;
13343;SDS011;6741;48.964;9.406;2023-10-31T10:14:38;2.80;;;0.90;;
13343;SDS011;6741;48.964;9.406;2023-10-31T10:17:12;2.00;;;1.03;;
13343;SDS011;6741;48.964;9.406;2023-10-31T10:19:40;2.97;;;1.13;;
13343;SDS011;6741;48.964;9.406;2023-10-31T10:22:07;1.33;;;0.80;;
13343;SDS011;6741;48.964;9.406;2023-10-31T10:24:39;1.30;;;0.90;;
13343;SDS011;6741;48.964;9.406;2023-10-31T10:27:06;1.90;;;0.90;;
13343;SDS011;6741;48.964;9.406;2023-10-31T10:29:34;2.23;;;1.07;;
13343;SDS011;6741;48.964;9.406;2023-10-31T10:32:04;2.80;;;0.77;;
13343;SDS011;6741;48.964;9.406;2023-10-31T10:34:33;2.90;;;0.97;;
13343;SDS011;6741;48.964;9.406;2023-10-31T10:37:01;5.20;;;1.17;;
13343;SDS011;6741;48.964;9.406;2023-10-31T10:39:33;2.40;;;0.90;;
13343;SDS011;6741;48.964;9.406;2023-10-31T10:42:02;1.23;;;0.60;;
13343;SDS011;6741;48.964;9.406;2023-10-31T10:44:37;3.87;;;1.43;;
13343;SDS011;6741;48.964;9.406;2023-10-31T10:47:09;3.03;;;1.10;;
13343;SDS011;6741;48.964;9.406;2023-10-31T10:49:41;1.60;;;0.90;;
13343;SDS011;6741;48.964;9.406;2023-10-31T10:52:17;1.80;;;1.10;;
13343;SDS011;6741;48.964;9.406;2023-10-31T10:54:51;5.57;;;1.33;;
13343;SDS011;6741;48.964;9.406;2023-10-31T10:57:21;3.80;;;1.03;;
13343;SDS011;6741;48.964;9.406;2023-10-31T10:59:58;5.47;;;1.27;;
13343;SDS011;6741;48.964;9.406;2023-10-31T11:02:30;2.50;;;0.80;;
13343;SDS011;6741;48.964;9.406;2023-10-31T11:04:58;2.40;;;1.10;;
13343;SDS011;6741;48.964;9.406;2023-10-31T11:07:26;2.97;;;1.00;;
13343;SDS011;6741;48.964;9.406;2023-10-31T11:09:57;6.87;;;1.50;;
13343;SDS011;6741;48.964;9.406;2023-10-31T11:12:27;8.70;;;1.63;;
13343;SDS011;6741;48.964;9.406;2023-10-31T11:14:55;4.23;;;1.13;;
13343;SDS011;6741;48.964;9.406;2023-10-31T11:17:24;1.40;;;1.30;;
13343;SDS011;6741;48.964;9.406;2023-10-31T11:19:54;3.47;;;1.70;;
13343;SDS011;6741;48.964;9.406;2023-10-31T11:22:22;3.13;;;1.77;;
13343;SDS011;6741;48.964;9.406;2023-10-31T11:24:49;2.60;;;1.20;;
13343;SDS011;6741;48.964;9.406;2023-10-31T11:27:19;1.70;;;0.93;;
13343;SDS011;6741;48.964;9.406;2023-10-31T11:29:46;3.70;;;1.00;;
13343;SDS011;6741;48.964;9.406;2023-10-31T11:32:14;2.40;;;0.90;;
13343;SDS011;6741;48.964;9.406;2023-10-31T11:34:41;4.90;;;1.30;;
13343;SDS011;6741;48.964;9.406;2023-10-31T11:37:19;3.17;;;1.37;;
13343;SDS011;6741;48.964;9.406;2023-10-31T11:42:43;2.40;;;1.07;;
13343;SDS011;6741;48.964;9.406;2023-10-31T11:45:13;2.07;;;1.10;;
13343;SDS011;6741;48.964;9.406;2023-10-31T11:47:51;2.67;;;0.73;;
13343;SDS011;6741;48.964;9.406;2023-10-31T11:50:18;6.23;;;1.10;;
13343;SDS011;6741;48.964;9.406;2023-10-31T11:52:45;1.63;;;0.73;;
13343;SDS011;6741;48.964;9.406;2023-10-31T11:55:25;2.07;;;0.73;;
13343;SDS011;6741;48.964;9.406;2023-10-31T11:57:53;1.03;;;0.57;;
13343;SDS011;6741;48.964;9.406;2023-10-31T12:00:20;4.17;;;1.47;;
13343;SDS011;6741;48.964;9.406;2023-10-31T12:02:58;3.27;;;1.87;;
13343;SDS011;6741;48.964;9.406;2023-10-31T12:05:25;3.70;;;2.10;;
13343;SDS011;6741;48.964;9.406;2023-10-31T12:07:53;1.23;;;0.83;;
13343;SDS011;6741;48.964;9.406;2023-10-31T12:10:23;1.17;;;0.90;;
13343;SDS011;6741;48.964;9.406;2023-10-31T12:12:52;1.40;;;0.70;;
13343;SDS011;6741;48.964;9.406;2023-10-31T12:15:20;0.93;;;0.50;;
13343;SDS011;6741;48.964;9.406;2023-10-31T12:17:47;1.30;;;1.20;;
13343;SDS011;6741;48.964;9.406;2023-10-31T12:20:14;2.23;;;0.73;;
13343;SDS011;6741;48.964;9.406;2023-10-31T12:22:42;3.00;;;1.10;;
13343;SDS011;6741;48.964;9.406;2023-10-31T12:25:09;1.20;;;0.70;;
13343;SDS011;6741;48.964;9.406;2023-10-31T12:27:44;1.73;;;1.20;;
13343;SDS011;6741;48.964;9.406;2023-10-31T12:30:13;2.77;;;1.07;;
13343;SDS011;6741;48.964;9.406;2023-10-31T12:32:41;1.53;;;1.30;;
13343;SDS011;6741;48.964;9.406;2023-10-31T12:35:08;2.10;;;1.03;;
13343;SDS011;6741;48.964;9.406;2023-10-31T12:37:41;1.47;;;0.80;;
13343;SDS011;6741;48.964;9.406;2023-10-31T12:40:10;0.57;;;0.50;;
13343;SDS011;6741;48.964;9.406;2023-10-31T12:42:41;1.73;;;0.60;;
13343;SDS011;6741;48.964;9.406;2023-10-31T12:45:09;1.03;;;0.60;;
13343;SDS011;6741;48.964;9.406;2023-10-31T12:47:38;1.07;;;0.70;;
13343;SDS011;6741;48.964;9.406;2023-10-31T12:50:05;0.93;;;0.80;;
13343;SDS011;6741;48.964;9.406;2023-10-31T12:52:47;1.90;;;0.80;;
13343;SDS011;6741;48.964;9.406;2023-10-31T12:55:16;1.33;;;0.50;;
13343;SDS011;6741;48.964;9.406;2023-10-31T12:57:44;2.23;;;1.03;;
13343;SDS011;6741;48.964;9.406;2023-10-31T13:00:12;1.60;;;0.80;;
13343;SDS011;6741;48.964;9.406;2023-10-31T13:02:42;3.77;;;1.17;;
13343;SDS011;6741;48.964;9.406;2023-10-31T13:05:10;4.67;;;1.50;;
13343;SDS011;6741;48.964;9.406;2023-10-31T13:07:38;1.47;;;1.30;;
13343;SDS011;6741;48.964;9.406;2023-10-31T13:10:06;1.40;;;1.20;;
13343;SDS011;6741;48.964;9.406;2023-10-31T13:12:35;3.43;;;2.20;;
13343;SDS011;6741;48.964;9.406;2023-10-31T13:15:02;3.23;;;1.50;;
13343;SDS011;6741;48.964;9.406;2023-10-31T13:17:30;2.30;;;1.70;;
13343;SDS011;6741;48.964;9.406;2023-10-31T13:19:59;2.87;;;1.67;;
13343;SDS011;6741;48.964;9.406;2023-10-31T13:22:25;4.10;;;2.00;;
13343;SDS011;6741;48.964;9.406;2023-10-31T13:24:52;3.97;;;2.60;;
13343;SDS011;6741;48.964;9.406;2023-10-31T13:27:19;2.57;;;2.03;;
13343;SDS011;6741;48.964;9.406;2023-10-31T13:29:46;3.37;;;2.00;;
13343;SDS011;6741;48.964;9.406;2023-10-31T13:32:14;2.33;;;2.03;;
13343;SDS011;6741;48.964;9.406;2023-10-31T13:34:42;4.77;;;2.33;;
13343;SDS011;6741;48.964;9.406;2023-10-31T13:37:10;4.23;;;2.10;;
13343;SDS011;6741;48.964;9.406;2023-10-31T13:39:37;2.37;;;1.97;;
13343;SDS011;6741;48.964;9.406;2023-10-31T13:42:04;3.43;;;2.03;;
13343;SDS011;6741;48.964;9.406;2023-10-31T13:44:31;4.47;;;1.83;;
13343;SDS011;6741;48.964;9.406;2023-10-31T13:46:58;4.73;;;2.20;;
13343;SDS011;6741;48.964;9.406;2023-10-31T13:49:26;2.43;;;1.70;;
13343;SDS011;6741;48.964;9.406;2023-10-31T13:51:53;2.93;;;1.90;;
13343;SDS011;6741;48.964;9.406;2023-10-31T13:54:21;4.93;;;1.80;;
13343;SDS011;6741;48.964;9.406;2023-10-31T13:56:48;3.43;;;2.40;;
13343;SDS011;6741;48.964;9.406;2023-10-31T13:59:15;3.33;;;2.77;;
13343;SDS011;6741;48.964;9.406;2023-10-31T14:01:43;4.10;;;2.60;;
13343;SDS011;6741;48.964;9.406;2023-10-31T14:04:11;3.87;;;3.03;;
13343;SDS011;6741;48.964;9.406;2023-10-31T14:06:38;4.20;;;2.83;;
13343;SDS011;6741;48.964;9.406;2023-10-31T14:09:07;3.80;;;2.93;;
13343;SDS011;6741;48.964;9.406;2023-10-31T14:11:36;9.57;;;4.00;;
13343;SDS011;6741;48.964;9.406;2023-10-31T14:14:04;6.00;;;2.80;;
13343;SDS011;6741;48.964;9.406;2023-10-31T14:16:34;3.83;;;2.70;;
13343;SDS011;6741;48.964;9.406;2023-10-31T14:19:01;4.13;;;2.40;;
13343;SDS011;6741;48.964;9.406;2023-10-31T14:21:28;3.70;;;1.93;;
13343;SDS011;6741;48.964;9.406;2023-10-31T14:23:55;2.57;;;2.13;;
13343;SDS011;6741;48.964;9.406;2023-10-31T14:26:23;5.77;;;2.30;;
13343;SDS011;6741;48.964;9.406;2023-10-31T14:28:52;2.93;;;2.00;;
13343;SDS011;6741;48.964;9.406;2023-10-31T14:31:19;4.67;;;2.23;;
13343;SDS011;6741;48.964;9.406;2023-10-31T14:33:46;4.50;;;2.43;;
13343;SDS011;6741;48.964;9.406;2023-10-31T14:36:13;3.37;;;1.90;;
13343;SDS011;6741;48.964;9.406;2023-10-31T14:38:40;2.73;;;2.00;;
13343;SDS011;6741;48.964;9.406;2023-10-31T14:41:07;3.20;;;1.93;;
13343;SDS011;6741;48.964;9.406;2023-10-31T14:43:35;2.70;;;2.10;;
13343;SDS011;6741;48.964;9.406;2023-10-31T14:46:04;3.37;;;2.30;;
13343;SDS011;6741;48.964;9.406;2023-10-31T14:48:32;2.50;;;2.00;;
13343;SDS011;6741;48.964;9.406;2023-10-31T14:50:59;2.53;;;2.30;;
13343;SDS011;6741;48.964;9.406;2023-10-31T14:53:27;2.43;;;1.90;;
13343;SDS011;6741;48.964;9.406;2023-10-31T14:55:54;5.50;;;2.27;;
13343;SDS011;6741;48.964;9.406;2023-10-31T14:58:21;3.40;;;1.80;;
13343;SDS011;6741;48.964;9.406;2023-10-31T15:00:48;3.13;;;1.73;;
13343;SDS011;6741;48.964;9.406;2023-10-31T15:03:18;3.33;;;1.87;;
13343;SDS011;6741;48.964;9.406;2023-10-31T15:05:45;4.87;;;1.60;;
13343;SDS011;6741;48.964;9.406;2023-10-31T15:08:12;5.00;;;2.20;;
13343;SDS011;6741;48.964;9.406;2023-10-31T15:10:39;3.40;;;1.73;;